createdAt,value
2023-03-21T00:04:25.567Z,97.51
2023-03-21T00:09:28.690Z,99.69
2023-03-21T00:14:38.152Z,100.00
2023-03-21T00:19:41.329Z,100.00
2023-03-21T00:24:43.234Z,100.00
2023-03-21T00:29:45.333Z,100.00
2023-03-21T00:35:01.497Z,100.00
2023-03-21T00:40:23.288Z,100.00
2023-03-21T00:45:28.681Z,100.00
2023-03-21T00:50:34.407Z,100.00
2023-03-21T00:55:39.065Z,100.00
2023-03-21T01:00:41.472Z,100.00
2023-03-21T01:06:05.189Z,100.00
2023-03-21T01:11:17.328Z,100.00
2023-03-21T01:16:19.852Z,100.00
2023-03-21T01:21:22.183Z,100.00
2023-03-21T01:26:24.223Z,100.00
2023-03-21T01:31:26.129Z,100.00
2023-03-21T01:36:28.595Z,100.00
2023-03-21T01:41:43.499Z,100.00
2023-03-21T01:47:07.660Z,100.00
2023-03-21T01:52:35.822Z,99.89
2023-03-21T01:57:58.472Z,99.84
2023-03-21T02:03:16.976Z,99.66
2023-03-21T02:08:39.269Z,99.33
2023-03-21T02:13:45.867Z,99.33
2023-03-21T02:19:20.105Z,99.18
2023-03-21T02:24:51.376Z,98.56
2023-03-21T02:30:26.514Z,98.19
2023-03-21T02:35:54.505Z,98.13
2023-03-21T02:41:18.064Z,98.08
2023-03-21T02:46:49.170Z,98.04
2023-03-21T02:52:12.177Z,97.91
2023-03-21T02:57:19.406Z,98.11
2023-03-21T03:02:27.255Z,97.91
2023-03-21T03:07:56.881Z,98.09
2023-03-21T03:13:09.758Z,98.13
2023-03-21T03:18:24.145Z,97.94
2023-03-21T03:23:43.516Z,98.22
2023-03-21T03:28:51.641Z,98.10
2023-03-21T03:33:58.741Z,98.32
2023-03-21T03:39:04.777Z,98.41
2023-03-21T03:44:07.293Z,99.09
2023-03-21T03:49:39.720Z,99.05
2023-03-21T03:54:46.076Z,99.49
2023-03-21T03:59:48.292Z,99.42
2023-03-21T04:05:09.546Z,99.44
2023-03-21T04:10:11.648Z,99.66
2023-03-21T04:15:16.324Z,99.73
2023-03-21T04:20:35.625Z,99.67
2023-03-21T04:25:47.585Z,99.82
2023-03-21T04:31:03.788Z,99.79
2023-03-21T04:36:26.345Z,99.97
2023-03-21T04:41:31.051Z,100.00
2023-03-21T04:46:34.036Z,99.98
2023-03-21T04:51:37.466Z,100.00
2023-03-21T04:56:39.954Z,99.98
2023-03-21T05:06:30.466Z,99.95
2023-03-21T05:11:33.474Z,100.00
2023-03-21T05:16:36.577Z,99.94
2023-03-21T05:21:41.984Z,100.00
2023-03-21T05:26:50.702Z,100.00
2023-03-21T05:31:53.744Z,100.00
2023-03-21T05:36:56.332Z,100.00
2023-03-21T05:41:59.961Z,99.98
2023-03-21T05:47:02.851Z,99.92
2023-03-21T05:52:11.880Z,100.00
2023-03-21T05:57:14.612Z,100.00
2023-03-21T06:02:34.110Z,99.91
2023-03-21T06:07:38.187Z,99.78
2023-03-21T06:12:43.064Z,99.75
2023-03-21T06:17:59.483Z,99.69
2023-03-21T06:23:01.655Z,99.75
2023-03-21T06:28:04.408Z,99.62
2023-03-21T06:33:08.004Z,99.27
2023-03-21T06:38:10.862Z,99.39
2023-03-21T06:43:13.927Z,99.61
2023-03-21T06:48:16.189Z,99.67
2023-03-21T06:53:29.925Z,99.84
2023-03-21T06:58:50.478Z,99.90
2023-03-21T07:04:21.109Z,100.00
2023-03-21T07:09:27.996Z,100.00
2023-03-21T07:14:34.610Z,100.00
2023-03-21T07:19:36.683Z,100.00
2023-03-21T07:24:38.385Z,100.00
2023-03-21T07:29:40.845Z,100.00
2023-03-21T07:34:42.626Z,99.83
2023-03-21T07:39:44.383Z,99.97
2023-03-21T07:44:46.499Z,99.81
2023-03-21T07:49:48.268Z,98.92
2023-03-21T07:54:49.946Z,98.24
2023-03-21T07:59:51.784Z,98.26
2023-03-21T08:04:53.508Z,97.25
2023-03-21T08:09:55.814Z,96.64
2023-03-21T08:15:00.598Z,95.74
2023-03-21T08:20:04.735Z,95.26
2023-03-21T08:25:08.577Z,94.91
2023-03-21T08:30:12.427Z,94.85
2023-03-21T08:35:16.791Z,95.10
2023-03-21T08:40:19.006Z,94.49
2023-03-21T08:45:20.975Z,91.43
2023-03-21T08:50:26.625Z,90.84
2023-03-21T08:55:28.469Z,92.29
2023-03-21T09:00:30.312Z,92.02
2023-03-21T09:05:32.080Z,91.79
2023-03-21T09:10:34.697Z,90.38
2023-03-21T09:15:36.685Z,86.89
2023-03-21T09:20:40.424Z,84.52
2023-03-21T09:25:45.151Z,83.26
2023-03-21T09:30:46.957Z,84.88
2023-03-21T09:35:51.747Z,85.25
2023-03-21T09:41:17.224Z,87.06
2023-03-21T09:46:31.944Z,88.27
2023-03-21T09:51:42.221Z,87.26
2023-03-21T09:56:45.489Z,85.70
2023-03-21T10:01:49.614Z,84.20
2023-03-21T10:06:59.814Z,84.17
2023-03-21T10:12:14.520Z,82.74
2023-03-21T10:17:26.376Z,82.97
2023-03-21T10:22:28.106Z,83.33
2023-03-21T10:27:30.711Z,82.27
2023-03-21T10:32:32.577Z,81.24
2023-03-21T10:37:36.342Z,80.78
2023-03-21T10:42:38.109Z,80.99
2023-03-21T10:47:40.103Z,80.55
2023-03-21T10:53:00.550Z,76.69
2023-03-21T10:58:08.743Z,73.67
2023-03-21T11:03:23.799Z,73.50
2023-03-21T11:08:27.398Z,72.64
2023-03-21T11:13:41.091Z,71.37
2023-03-21T11:18:45.567Z,70.72
2023-03-21T11:23:51.840Z,70.86
2023-03-21T11:28:55.306Z,72.94
2023-03-21T11:33:57.203Z,73.93
2023-03-21T11:39:12.881Z,75.07
2023-03-21T11:44:33.658Z,76.48
2023-03-21T11:49:35.499Z,75.41
2023-03-21T11:54:47.292Z,77.26
2023-03-21T11:59:57.356Z,78.84
2023-03-21T12:05:21.792Z,79.59
2023-03-21T12:10:49.158Z,78.89
2023-03-21T12:16:27.744Z,78.44
2023-03-21T12:22:03.249Z,75.63
2023-03-21T12:27:37.023Z,75.64
2023-03-21T12:32:44.668Z,75.03
2023-03-21T12:38:01.940Z,73.59
2023-03-21T12:43:21.872Z,72.57
2023-03-21T12:48:47.825Z,71.51
2023-03-21T12:54:15.823Z,71.11
2023-03-21T12:59:25.270Z,71.57
2023-03-21T13:04:49.861Z,71.42
2023-03-21T13:09:55.148Z,68.96
2023-03-21T13:15:23.179Z,68.45
2023-03-21T13:20:44.077Z,67.36
2023-03-21T13:25:51.528Z,67.81
2023-03-21T13:31:14.048Z,67.42
2023-03-21T13:36:25.854Z,67.80
2023-03-21T13:41:35.220Z,66.45
2023-03-21T13:46:53.452Z,66.16
2023-03-21T13:51:58.448Z,65.46
2023-03-21T13:57:04.724Z,63.10
2023-03-21T14:02:15.586Z,63.14
2023-03-21T14:07:27.187Z,63.44
2023-03-21T14:12:34.804Z,62.19
2023-03-21T14:17:36.854Z,63.36
2023-03-21T14:22:42.134Z,64.49
2023-03-21T14:27:48.433Z,63.26
2023-03-21T14:32:50.761Z,63.85
2023-03-21T14:37:52.563Z,63.48
2023-03-21T14:42:55.433Z,63.48
2023-03-21T14:48:05.667Z,63.76
2023-03-21T14:53:11.781Z,64.79
2023-03-21T14:58:17.688Z,65.68
2023-03-21T15:03:22.264Z,65.65
2023-03-21T15:08:26.430Z,65.94
2023-03-21T15:13:32.048Z,66.40
2023-03-21T15:18:37.572Z,66.87
2023-03-21T15:23:48.292Z,67.60
2023-03-21T15:28:56.088Z,67.26
2023-03-21T15:33:57.989Z,67.64
2023-03-21T15:39:06.478Z,68.12
2023-03-21T15:44:08.115Z,68.51
2023-03-21T15:49:16.190Z,69.03
2023-03-21T15:54:31.366Z,69.60
2023-03-21T15:59:36.981Z,70.24
2023-03-21T16:04:55.941Z,70.48
2023-03-21T16:10:01.027Z,70.92
2023-03-21T16:15:02.985Z,71.36
2023-03-21T16:20:32.581Z,71.58
2023-03-21T16:25:35.444Z,71.14
2023-03-21T16:30:38.730Z,71.36
2023-03-21T16:35:40.742Z,71.43
2023-03-21T16:40:44.036Z,71.36
2023-03-21T16:45:45.857Z,72.07
2023-03-21T16:50:48.293Z,72.71
2023-03-21T16:55:50.353Z,73.48
2023-03-21T17:00:52.137Z,74.64
2023-03-21T17:05:53.956Z,75.60
2023-03-21T17:10:55.924Z,76.75
2023-03-21T17:15:57.821Z,77.21
2023-03-21T17:20:59.494Z,77.45
2023-03-21T17:26:02.311Z,77.53
2023-03-21T17:31:06.590Z,77.57
2023-03-21T17:36:24.519Z,77.96
2023-03-21T17:41:27.430Z,77.92
2023-03-21T17:46:34.373Z,78.31
2023-03-21T17:51:36.261Z,79.00
2023-03-21T17:56:37.975Z,78.82
2023-03-21T18:01:39.917Z,78.95
2023-03-21T18:06:41.782Z,79.03
2023-03-21T18:11:46.006Z,78.89
2023-03-21T18:16:50.684Z,79.41
2023-03-21T18:21:52.498Z,79.83
2023-03-21T18:26:54.715Z,79.83
2023-03-21T18:32:06.890Z,79.86
2023-03-21T18:37:13.144Z,80.24
2023-03-21T18:42:18.859Z,80.80
2023-03-21T18:47:23.022Z,80.93
2023-03-21T18:52:27.091Z,81.38
2023-03-21T18:57:38.227Z,81.54
2023-03-21T19:02:45.651Z,81.86
2023-03-21T19:07:49.277Z,81.90
2023-03-21T19:12:52.820Z,82.38
2023-03-21T19:18:30.693Z,82.31
2023-03-21T19:23:18.660Z,82.56
2023-03-21T19:28:20.837Z,83.02
2023-03-21T19:33:24.550Z,83.29
2023-03-21T19:38:26.484Z,83.49
2023-03-21T19:43:33.001Z,83.85
2023-03-21T19:48:38.037Z,83.85
2023-03-21T19:53:40.491Z,84.03
2023-03-21T19:58:42.363Z,84.06
2023-03-21T20:03:47.492Z,83.72
2023-03-21T20:09:27.177Z,82.92
2023-03-21T20:14:12.591Z,82.63
2023-03-21T20:19:16.273Z,82.86
2023-03-21T20:24:18.553Z,82.81
2023-03-21T20:34:44.470Z,83.21
2023-03-21T20:39:46.594Z,82.56
2023-03-21T20:44:58.312Z,82.97
2023-03-21T20:50:01.085Z,83.13
2023-03-21T20:55:03.195Z,82.55
2023-03-21T21:00:13.562Z,82.65
2023-03-21T21:05:28.391Z,82.33
2023-03-21T21:10:33.562Z,82.42
2023-03-21T21:15:35.704Z,83.08
2023-03-21T21:20:38.779Z,83.23
2023-03-21T21:25:40.791Z,82.86
2023-03-21T21:30:42.868Z,83.12
2023-03-21T21:35:48.069Z,82.93
2023-03-21T21:40:51.808Z,83.13
2023-03-21T21:45:54.199Z,83.43
2023-03-21T21:50:55.985Z,83.69
2023-03-21T21:55:57.642Z,83.68
2023-03-21T22:01:01.897Z,84.18
2023-03-21T22:06:05.019Z,84.49
2023-03-21T22:11:07.836Z,85.11
2023-03-21T22:16:14.324Z,85.06
2023-03-21T22:21:16.403Z,85.65
2023-03-21T22:26:18.213Z,85.63
2023-03-21T22:31:20.702Z,86.57
2023-03-21T22:36:22.484Z,86.70
2023-03-21T22:41:25.425Z,86.53
2023-03-21T22:46:28.086Z,86.21
2023-03-21T22:51:32.821Z,86.06
2023-03-21T22:56:34.686Z,86.57
2023-03-21T23:01:36.466Z,87.48
2023-03-21T23:06:39.019Z,88.78
2023-03-21T23:11:41.004Z,88.07
2023-03-21T23:16:45.057Z,87.35
2023-03-21T23:21:48.226Z,88.73
2023-03-21T23:26:50.422Z,88.94
2023-03-21T23:31:52.218Z,89.07
2023-03-21T23:36:53.989Z,89.07
2023-03-21T23:41:55.921Z,89.30
2023-03-21T23:46:57.691Z,88.56
2023-03-21T23:51:59.346Z,89.05
2023-03-21T23:57:01.496Z,88.43
